sensor_id;sensor_type;location;lat;lon;timestamp;P1;durP1;ratioP1;P2;durP2;ratioP2
9942;SDS011;5010;45.080;7.634;2023-12-28T00:00:07;15.57;;;9.30;;
9942;SDS011;5010;45.080;7.634;2023-12-28T00:02:36;15.30;;;9.45;;
9942;SDS011;5010;45.080;7.634;2023-12-28T00:05:03;14.80;;;7.80;;
9942;SDS011;5010;45.080;7.634;2023-12-28T00:07:31;15.13;;;9.27;;
9942;SDS011;5010;45.080;7.634;2023-12-28T00:09:58;16.08;;;9.02;;
9942;SDS011;5010;45.080;7.634;2023-12-28T00:12:27;18.33;;;9.63;;
9942;SDS011;5010;45.080;7.634;2023-12-28T00:14:54;16.40;;;9.98;;
9942;SDS011;5010;45.080;7.634;2023-12-28T00:17:22;18.05;;;10.25;;
9942;SDS011;5010;45.080;7.634;2023-12-28T00:19:50;16.92;;;10.50;;
9942;SDS011;5010;45.080;7.634;2023-12-28T00:22:17;20.30;;;9.82;;
9942;SDS011;5010;45.080;7.634;2023-12-28T00:24:45;15.93;;;9.57;;
9942;SDS011;5010;45.080;7.634;2023-12-28T00:27:12;15.40;;;7.97;;
9942;SDS011;5010;45.080;7.634;2023-12-28T00:29:39;16.85;;;8.50;;
9942;SDS011;5010;45.080;7.634;2023-12-28T00:32:08;14.27;;;8.98;;
9942;SDS011;5010;45.080;7.634;2023-12-28T00:34:35;15.20;;;8.93;;
9942;SDS011;5010;45.080;7.634;2023-12-28T00:37:06;17.30;;;9.98;;
9942;SDS011;5010;45.080;7.634;2023-12-28T00:39:33;16.65;;;8.55;;
9942;SDS011;5010;45.080;7.634;2023-12-28T00:42:00;14.45;;;8.80;;
9942;SDS011;5010;45.080;7.634;2023-12-28T00:44:28;15.23;;;9.77;;
9942;SDS011;5010;45.080;7.634;2023-12-28T00:46:55;15.57;;;9.30;;
9942;SDS011;5010;45.080;7.634;2023-12-28T00:49:22;17.15;;;9.65;;
9942;SDS011;5010;45.080;7.634;2023-12-28T00:51:49;13.80;;;8.25;;
9942;SDS011;5010;45.080;7.634;2023-12-28T00:54:18;17.23;;;9.35;;
9942;SDS011;5010;45.080;7.634;2023-12-28T00:56:46;17.00;;;9.20;;
9942;SDS011;5010;45.080;7.634;2023-12-28T00:59:13;16.02;;;9.00;;
9942;SDS011;5010;45.080;7.634;2023-12-28T01:01:40;18.70;;;11.05;;
9942;SDS011;5010;45.080;7.634;2023-12-28T01:04:07;14.25;;;7.82;;
9942;SDS011;5010;45.080;7.634;2023-12-28T01:06:35;14.20;;;8.35;;
9942;SDS011;5010;45.080;7.634;2023-12-28T01:09:02;14.13;;;8.23;;
9942;SDS011;5010;45.080;7.634;2023-12-28T01:11:30;16.83;;;10.63;;
9942;SDS011;5010;45.080;7.634;2023-12-28T01:13:58;14.25;;;9.95;;
9942;SDS011;5010;45.080;7.634;2023-12-28T01:16:25;20.95;;;10.90;;
9942;SDS011;5010;45.080;7.634;2023-12-28T01:18:52;16.05;;;10.07;;
9942;SDS011;5010;45.080;7.634;2023-12-28T01:21:22;16.88;;;10.73;;
9942;SDS011;5010;45.080;7.634;2023-12-28T01:23:50;15.88;;;9.75;;
9942;SDS011;5010;45.080;7.634;2023-12-28T01:26:17;17.05;;;9.27;;
9942;SDS011;5010;45.080;7.634;2023-12-28T01:28:45;17.63;;;9.88;;
9942;SDS011;5010;45.080;7.634;2023-12-28T01:31:13;16.50;;;11.23;;
9942;SDS011;5010;45.080;7.634;2023-12-28T01:33:40;14.82;;;8.55;;
9942;SDS011;5010;45.080;7.634;2023-12-28T01:36:16;20.00;;;10.25;;
9942;SDS011;5010;45.080;7.634;2023-12-28T01:38:44;17.77;;;10.65;;
9942;SDS011;5010;45.080;7.634;2023-12-28T01:41:11;16.58;;;10.52;;
9942;SDS011;5010;45.080;7.634;2023-12-28T01:43:40;15.77;;;9.63;;
9942;SDS011;5010;45.080;7.634;2023-12-28T01:46:10;16.27;;;11.10;;
9942;SDS011;5010;45.080;7.634;2023-12-28T01:48:39;18.08;;;11.18;;
9942;SDS011;5010;45.080;7.634;2023-12-28T01:51:07;17.05;;;10.48;;
9942;SDS011;5010;45.080;7.634;2023-12-28T01:53:34;19.00;;;10.50;;
9942;SDS011;5010;45.080;7.634;2023-12-28T01:56:02;16.45;;;11.35;;
9942;SDS011;5010;45.080;7.634;2023-12-28T01:58:29;17.55;;;9.98;;
9942;SDS011;5010;45.080;7.634;2023-12-28T02:00:59;20.80;;;10.68;;
9942;SDS011;5010;45.080;7.634;2023-12-28T02:03:29;15.30;;;9.35;;
9942;SDS011;5010;45.080;7.634;2023-12-28T02:05:56;15.32;;;9.00;;
9942;SDS011;5010;45.080;7.634;2023-12-28T02:08:24;15.77;;;9.43;;
9942;SDS011;5010;45.080;7.634;2023-12-28T02:10:51;19.25;;;11.10;;
9942;SDS011;5010;45.080;7.634;2023-12-28T02:13:20;15.75;;;11.05;;
9942;SDS011;5010;45.080;7.634;2023-12-28T02:15:47;19.23;;;11.00;;
9942;SDS011;5010;45.080;7.634;2023-12-28T02:18:19;15.95;;;9.52;;
9942;SDS011;5010;45.080;7.634;2023-12-28T02:20:48;16.63;;;10.13;;
9942;SDS011;5010;45.080;7.634;2023-12-28T02:23:16;20.92;;;10.32;;
9942;SDS011;5010;45.080;7.634;2023-12-28T02:25:45;16.30;;;10.75;;
9942;SDS011;5010;45.080;7.634;2023-12-28T02:28:12;17.50;;;10.77;;
9942;SDS011;5010;45.080;7.634;2023-12-28T02:30:39;19.92;;;10.85;;
9942;SDS011;5010;45.080;7.634;2023-12-28T02:33:07;18.50;;;11.80;;
9942;SDS011;5010;45.080;7.634;2023-12-28T02:35:39;16.80;;;11.55;;
9942;SDS011;5010;45.080;7.634;2023-12-28T02:38:09;18.50;;;11.13;;
9942;SDS011;5010;45.080;7.634;2023-12-28T02:40:36;16.10;;;9.50;;
9942;SDS011;5010;45.080;7.634;2023-12-28T02:43:06;16.33;;;10.20;;
9942;SDS011;5010;45.080;7.634;2023-12-28T02:45:33;24.83;;;12.45;;
9942;SDS011;5010;45.080;7.634;2023-12-28T02:48:01;15.10;;;10.65;;
9942;SDS011;5010;45.080;7.634;2023-12-28T02:50:28;19.15;;;11.52;;
9942;SDS011;5010;45.080;7.634;2023-12-28T02:52:56;15.52;;;9.15;;
9942;SDS011;5010;45.080;7.634;2023-12-28T02:55:24;17.25;;;11.05;;
9942;SDS011;5010;45.080;7.634;2023-12-28T02:57:51;16.25;;;10.98;;
9942;SDS011;5010;45.080;7.634;2023-12-28T03:00:21;15.55;;;11.30;;
9942;SDS011;5010;45.080;7.634;2023-12-28T03:02:48;17.10;;;10.25;;
9942;SDS011;5010;45.080;7.634;2023-12-28T03:05:16;17.13;;;12.18;;
9942;SDS011;5010;45.080;7.634;2023-12-28T03:07:43;17.42;;;11.18;;
9942;SDS011;5010;45.080;7.634;2023-12-28T03:10:10;18.85;;;11.23;;
9942;SDS011;5010;45.080;7.634;2023-12-28T03:12:38;18.45;;;11.63;;
9942;SDS011;5010;45.080;7.634;2023-12-28T03:15:07;17.10;;;10.40;;
9942;SDS011;5010;45.080;7.634;2023-12-28T03:17:36;18.20;;;11.98;;
9942;SDS011;5010;45.080;7.634;2023-12-28T03:20:04;15.57;;;10.02;;
9942;SDS011;5010;45.080;7.634;2023-12-28T03:22:31;16.92;;;10.60;;
9942;SDS011;5010;45.080;7.634;2023-12-28T03:24:58;16.40;;;10.93;;
9942;SDS011;5010;45.080;7.634;2023-12-28T03:27:26;17.85;;;11.38;;
9942;SDS011;5010;45.080;7.634;2023-12-28T03:29:53;17.95;;;11.35;;
9942;SDS011;5010;45.080;7.634;2023-12-28T03:32:20;21.55;;;12.48;;
9942;SDS011;5010;45.080;7.634;2023-12-28T03:34:49;20.10;;;11.65;;
9942;SDS011;5010;45.080;7.634;2023-12-28T03:37:16;22.08;;;12.35;;
9942;SDS011;5010;45.080;7.634;2023-12-28T03:39:43;17.13;;;11.00;;
9942;SDS011;5010;45.080;7.634;2023-12-28T03:42:11;19.92;;;11.32;;
9942;SDS011;5010;45.080;7.634;2023-12-28T03:44:38;19.08;;;9.60;;
9942;SDS011;5010;45.080;7.634;2023-12-28T03:47:05;20.55;;;11.60;;
9942;SDS011;5010;45.080;7.634;2023-12-28T03:49:32;16.00;;;9.18;;
9942;SDS011;5010;45.080;7.634;2023-12-28T03:52:01;20.50;;;12.00;;
9942;SDS011;5010;45.080;7.634;2023-12-28T03:54:28;17.63;;;10.27;;
9942;SDS011;5010;45.080;7.634;2023-12-28T03:56:55;14.68;;;10.48;;
9942;SDS011;5010;45.080;7.634;2023-12-28T03:59:23;17.80;;;10.95;;
9942;SDS011;5010;45.080;7.634;2023-12-28T04:01:50;17.35;;;11.98;;
9942;SDS011;5010;45.080;7.634;2023-12-28T04:04:18;18.73;;;11.98;;
9942;SDS011;5010;45.080;7.634;2023-12-28T04:06:45;20.65;;;12.50;;
9942;SDS011;5010;45.080;7.634;2023-12-28T04:09:14;18.15;;;11.35;;
9942;SDS011;5010;45.080;7.634;2023-12-28T04:11:42;16.10;;;11.23;;
9942;SDS011;5010;45.080;7.634;2023-12-28T04:14:09;17.70;;;11.73;;
9942;SDS011;5010;45.080;7.634;2023-12-28T04:16:37;17.40;;;13.10;;
9942;SDS011;5010;45.080;7.634;2023-12-28T04:19:04;16.58;;;11.23;;
9942;SDS011;5010;45.080;7.634;2023-12-28T04:21:31;19.38;;;13.38;;
9942;SDS011;5010;45.080;7.634;2023-12-28T04:23:58;19.80;;;11.80;;
9942;SDS011;5010;45.080;7.634;2023-12-28T04:26:27;16.98;;;11.32;;
9942;SDS011;5010;45.080;7.634;2023-12-28T04:28:55;22.50;;;12.02;;
9942;SDS011;5010;45.080;7.634;2023-12-28T04:31:22;17.73;;;12.98;;
9942;SDS011;5010;45.080;7.634;2023-12-28T04:33:49;18.42;;;12.68;;
9942;SDS011;5010;45.080;7.634;2023-12-28T04:36:17;17.98;;;10.40;;
9942;SDS011;5010;45.080;7.634;2023-12-28T04:38:44;19.58;;;11.40;;
9942;SDS011;5010;45.080;7.634;2023-12-28T04:41:11;17.23;;;11.15;;
9942;SDS011;5010;45.080;7.634;2023-12-28T04:43:40;18.15;;;11.02;;
9942;SDS011;5010;45.080;7.634;2023-12-28T04:46:07;17.40;;;11.02;;
9942;SDS011;5010;45.080;7.634;2023-12-28T04:48:34;18.77;;;11.35;;
9942;SDS011;5010;45.080;7.634;2023-12-28T04:51:02;18.67;;;13.13;;
9942;SDS011;5010;45.080;7.634;2023-12-28T04:53:29;22.90;;;12.38;;
9942;SDS011;5010;45.080;7.634;2023-12-28T04:55:57;19.77;;;11.38;;
9942;SDS011;5010;45.080;7.634;2023-12-28T04:58:24;18.65;;;11.73;;
9942;SDS011;5010;45.080;7.634;2023-12-28T05:00:52;19.60;;;11.60;;
9942;SDS011;5010;45.080;7.634;2023-12-28T05:03:20;18.02;;;12.52;;
9942;SDS011;5010;45.080;7.634;2023-12-28T05:05:47;21.45;;;12.43;;
9942;SDS011;5010;45.080;7.634;2023-12-28T05:08:14;20.95;;;11.90;;
9942;SDS011;5010;45.080;7.634;2023-12-28T05:10:41;15.88;;;10.05;;
9942;SDS011;5010;45.080;7.634;2023-12-28T05:13:09;17.52;;;10.10;;
9942;SDS011;5010;45.080;7.634;2023-12-28T05:15:36;16.80;;;10.57;;
9942;SDS011;5010;45.080;7.634;2023-12-28T05:18:05;20.77;;;12.45;;
9942;SDS011;5010;45.080;7.634;2023-12-28T05:20:33;16.00;;;10.52;;
9942;SDS011;5010;45.080;7.634;2023-12-28T05:23:01;20.35;;;11.93;;
9942;SDS011;5010;45.080;7.634;2023-12-28T05:25:28;20.20;;;12.35;;
9942;SDS011;5010;45.080;7.634;2023-12-28T05:27:55;16.73;;;11.45;;
9942;SDS011;5010;45.080;7.634;2023-12-28T05:30:22;16.92;;;13.23;;
9942;SDS011;5010;45.080;7.634;2023-12-28T05:32:49;20.35;;;11.88;;
9942;SDS011;5010;45.080;7.634;2023-12-28T05:35:18;18.77;;;12.55;;
9942;SDS011;5010;45.080;7.634;2023-12-28T05:37:46;20.10;;;11.73;;
9942;SDS011;5010;45.080;7.634;2023-12-28T05:40:13;16.50;;;12.77;;
9942;SDS011;5010;45.080;7.634;2023-12-28T05:42:40;21.35;;;12.65;;
9942;SDS011;5010;45.080;7.634;2023-12-28T05:45:08;19.95;;;12.75;;
9942;SDS011;5010;45.080;7.634;2023-12-28T05:47:35;17.45;;;12.10;;
9942;SDS011;5010;45.080;7.634;2023-12-28T05:50:03;16.20;;;11.48;;
9942;SDS011;5010;45.080;7.634;2023-12-28T05:52:32;18.00;;;13.05;;
9942;SDS011;5010;45.080;7.634;2023-12-28T05:54:59;17.25;;;11.80;;
9942;SDS011;5010;45.080;7.634;2023-12-28T05:57:27;17.35;;;11.18;;
9942;SDS011;5010;45.080;7.634;2023-12-28T05:59:56;17.30;;;12.15;;
9942;SDS011;5010;45.080;7.634;2023-12-28T06:02:23;20.38;;;12.68;;
9942;SDS011;5010;45.080;7.634;2023-12-28T06:04:50;17.95;;;11.95;;
9942;SDS011;5010;45.080;7.634;2023-12-28T06:07:17;18.70;;;12.57;;
9942;SDS011;5010;45.080;7.634;2023-12-28T06:09:46;15.75;;;10.35;;
9942;SDS011;5010;45.080;7.634;2023-12-28T06:12:13;18.33;;;12.85;;
9942;SDS011;5010;45.080;7.634;2023-12-28T06:14:41;16.92;;;11.65;;
9942;SDS011;5010;45.080;7.634;2023-12-28T06:17:08;17.33;;;13.25;;
9942;SDS011;5010;45.080;7.634;2023-12-28T06:19:35;16.90;;;12.05;;
9942;SDS011;5010;45.080;7.634;2023-12-28T06:22:03;21.02;;;13.35;;
9942;SDS011;5010;45.080;7.634;2023-12-28T06:24:30;22.98;;;13.60;;
9942;SDS011;5010;45.080;7.634;2023-12-28T06:26:58;20.48;;;11.93;;
9942;SDS011;5010;45.080;7.634;2023-12-28T06:29:26;19.02;;;12.25;;
9942;SDS011;5010;45.080;7.634;2023-12-28T06:31:53;18.02;;;11.75;;
9942;SDS011;5010;45.080;7.634;2023-12-28T06:34:20;18.00;;;11.80;;
9942;SDS011;5010;45.080;7.634;2023-12-28T06:36:47;17.45;;;12.48;;
9942;SDS011;5010;45.080;7.634;2023-12-28T06:39:15;18.17;;;11.82;;
9942;SDS011;5010;45.080;7.634;2023-12-28T06:41:42;17.17;;;12.48;;
9942;SDS011;5010;45.080;7.634;2023-12-28T06:44:12;18.52;;;12.52;;
9942;SDS011;5010;45.080;7.634;2023-12-28T06:46:39;17.45;;;11.73;;
9942;SDS011;5010;45.080;7.634;2023-12-28T06:49:07;18.95;;;12.55;;
9942;SDS011;5010;45.080;7.634;2023-12-28T06:51:34;19.05;;;12.55;;
9942;SDS011;5010;45.080;7.634;2023-12-28T06:54:01;19.15;;;12.57;;
9942;SDS011;5010;45.080;7.634;2023-12-28T06:56:28;20.75;;;12.52;;
9942;SDS011;5010;45.080;7.634;2023-12-28T06:58:56;19.50;;;12.80;;
9942;SDS011;5010;45.080;7.634;2023-12-28T07:01:24;17.20;;;11.15;;
9942;SDS011;5010;45.080;7.634;2023-12-28T07:03:52;19.45;;;12.23;;
9942;SDS011;5010;45.080;7.634;2023-12-28T07:06:19;16.95;;;12.18;;
9942;SDS011;5010;45.080;7.634;2023-12-28T07:08:46;20.17;;;12.82;;
9942;SDS011;5010;45.080;7.634;2023-12-28T07:11:13;18.27;;;12.63;;
9942;SDS011;5010;45.080;7.634;2023-12-28T07:13:41;19.13;;;13.95;;
9942;SDS011;5010;45.080;7.634;2023-12-28T07:16:08;19.73;;;12.77;;
9942;SDS011;5010;45.080;7.634;2023-12-28T07:18:37;19.70;;;12.15;;
9942;SDS011;5010;45.080;7.634;2023-12-28T07:21:04;18.40;;;11.32;;
9942;SDS011;5010;45.080;7.634;2023-12-28T07:23:34;17.80;;;13.00;;
9942;SDS011;5010;45.080;7.634;2023-12-28T07:26:01;17.65;;;10.95;;
9942;SDS011;5010;45.080;7.634;2023-12-28T07:28:29;16.83;;;11.77;;
9942;SDS011;5010;45.080;7.634;2023-12-28T07:30:56;17.67;;;12.77;;
9942;SDS011;5010;45.080;7.634;2023-12-28T07:33:23;16.92;;;11.70;;
9942;SDS011;5010;45.080;7.634;2023-12-28T07:35:53;16.98;;;11.88;;
9942;SDS011;5010;45.080;7.634;2023-12-28T07:38:20;17.52;;;12.80;;
9942;SDS011;5010;45.080;7.634;2023-12-28T07:40:47;18.65;;;12.65;;
9942;SDS011;5010;45.080;7.634;2023-12-28T07:43:15;18.00;;;11.25;;
9942;SDS011;5010;45.080;7.634;2023-12-28T07:45:42;20.88;;;11.95;;
9942;SDS011;5010;45.080;7.634;2023-12-28T07:48:09;16.52;;;11.35;;
9942;SDS011;5010;45.080;7.634;2023-12-28T07:50:36;16.52;;;10.50;;
9942;SDS011;5010;45.080;7.634;2023-12-28T07:53:05;18.85;;;11.98;;
9942;SDS011;5010;45.080;7.634;2023-12-28T07:55:32;19.58;;;12.02;;
9942;SDS011;5010;45.080;7.634;2023-12-28T07:58:00;19.42;;;13.48;;
9942;SDS011;5010;45.080;7.634;2023-12-28T08:00:27;18.50;;;11.75;;
9942;SDS011;5010;45.080;7.634;2023-12-28T08:02:54;19.73;;;12.52;;
9942;SDS011;5010;45.080;7.634;2023-12-28T08:05:21;20.33;;;14.77;;
9942;SDS011;5010;45.080;7.634;2023-12-28T08:07:49;17.30;;;12.98;;
9942;SDS011;5010;45.080;7.634;2023-12-28T08:10:17;19.92;;;13.45;;
9942;SDS011;5010;45.080;7.634;2023-12-28T08:12:45;18.83;;;11.68;;
9942;SDS011;5010;45.080;7.634;2023-12-28T08:15:12;20.80;;;12.77;;
9942;SDS011;5010;45.080;7.634;2023-12-28T08:17:39;19.38;;;13.45;;
9942;SDS011;5010;45.080;7.634;2023-12-28T08:20:09;17.90;;;13.02;;
9942;SDS011;5010;45.080;7.634;2023-12-28T08:22:37;18.08;;;13.20;;
9942;SDS011;5010;45.080;7.634;2023-12-28T08:25:04;18.40;;;13.57;;
9942;SDS011;5010;45.080;7.634;2023-12-28T08:27:33;18.70;;;11.43;;
9942;SDS011;5010;45.080;7.634;2023-12-28T08:30:00;17.90;;;12.65;;
9942;SDS011;5010;45.080;7.634;2023-12-28T08:32:29;19.13;;;12.70;;
9942;SDS011;5010;45.080;7.634;2023-12-28T08:34:56;18.95;;;13.07;;
9942;SDS011;5010;45.080;7.634;2023-12-28T08:37:24;19.90;;;13.15;;
9942;SDS011;5010;45.080;7.634;2023-12-28T08:39:51;19.88;;;11.45;;
9942;SDS011;5010;45.080;7.634;2023-12-28T08:42:21;20.60;;;13.45;;
9942;SDS011;5010;45.080;7.634;2023-12-28T08:44:51;23.30;;;14.60;;
9942;SDS011;5010;45.080;7.634;2023-12-28T08:47:18;17.95;;;13.00;;
9942;SDS011;5010;45.080;7.634;2023-12-28T08:49:45;17.83;;;12.75;;
9942;SDS011;5010;45.080;7.634;2023-12-28T08:52:12;19.60;;;12.90;;
9942;SDS011;5010;45.080;7.634;2023-12-28T08:54:40;19.77;;;14.13;;
9942;SDS011;5010;45.080;7.634;2023-12-28T08:57:07;21.10;;;13.65;;
9942;SDS011;5010;45.080;7.634;2023-12-28T08:59:35;21.65;;;13.45;;
9942;SDS011;5010;45.080;7.634;2023-12-28T09:02:04;15.73;;;12.48;;
9942;SDS011;5010;45.080;7.634;2023-12-28T09:04:32;20.75;;;14.30;;
9942;SDS011;5010;45.080;7.634;2023-12-28T09:06:59;17.83;;;12.05;;
9942;SDS011;5010;45.080;7.634;2023-12-28T09:09:27;16.80;;;12.50;;
9942;SDS011;5010;45.080;7.634;2023-12-28T09:11:54;18.15;;;12.18;;
9942;SDS011;5010;45.080;7.634;2023-12-28T09:14:21;17.98;;;13.00;;
9942;SDS011;5010;45.080;7.634;2023-12-28T09:16:49;21.98;;;13.32;;
9942;SDS011;5010;45.080;7.634;2023-12-28T09:19:17;18.02;;;11.70;;
9942;SDS011;5010;45.080;7.634;2023-12-28T09:21:44;18.63;;;11.77;;
9942;SDS011;5010;45.080;7.634;2023-12-28T09:24:12;16.88;;;11.95;;
9942;SDS011;5010;45.080;7.634;2023-12-28T09:26:40;16.27;;;11.38;;
9942;SDS011;5010;45.080;7.634;2023-12-28T09:29:07;16.40;;;11.20;;
9942;SDS011;5010;45.080;7.634;2023-12-28T09:31:35;20.13;;;13.50;;
9942;SDS011;5010;45.080;7.634;2023-12-28T09:34:02;17.77;;;11.88;;
9942;SDS011;5010;45.080;7.634;2023-12-28T09:36:33;18.30;;;12.57;;
9942;SDS011;5010;45.080;7.634;2023-12-28T09:39:00;20.55;;;13.18;;
9942;SDS011;5010;45.080;7.634;2023-12-28T09:41:30;20.60;;;14.68;;
9942;SDS011;5010;45.080;7.634;2023-12-28T09:44:03;17.98;;;11.43;;
9942;SDS011;5010;45.080;7.634;2023-12-28T09:46:34;18.40;;;12.25;;
9942;SDS011;5010;45.080;7.634;2023-12-28T09:49:01;20.15;;;12.57;;
9942;SDS011;5010;45.080;7.634;2023-12-28T09:51:29;16.80;;;12.30;;
9942;SDS011;5010;45.080;7.634;2023-12-28T09:53:58;20.05;;;12.68;;
9942;SDS011;5010;45.080;7.634;2023-12-28T09:56:26;19.63;;;12.70;;
9942;SDS011;5010;45.080;7.634;2023-12-28T09:58:53;18.05;;;12.30;;
9942;SDS011;5010;45.080;7.634;2023-12-28T10:01:22;16.67;;;12.18;;
9942;SDS011;5010;45.080;7.634;2023-12-28T10:03:49;17.40;;;12.30;;
9942;SDS011;5010;45.080;7.634;2023-12-28T10:06:21;19.42;;;13.25;;
9942;SDS011;5010;45.080;7.634;2023-12-28T10:08:48;16.00;;;12.02;;
9942;SDS011;5010;45.080;7.634;2023-12-28T10:11:17;17.10;;;11.75;;
9942;SDS011;5010;45.080;7.634;2023-12-28T10:13:45;19.30;;;12.65;;
9942;SDS011;5010;45.080;7.634;2023-12-28T10:16:15;19.55;;;11.35;;
9942;SDS011;5010;45.080;7.634;2023-12-28T10:18:42;17.67;;;11.80;;
9942;SDS011;5010;45.080;7.634;2023-12-28T10:21:10;17.95;;;11.75;;
9942;SDS011;5010;45.080;7.634;2023-12-28T10:23:38;18.95;;;12.05;;
9942;SDS011;5010;45.080;7.634;2023-12-28T10:26:05;21.58;;;11.95;;
9942;SDS011;5010;45.080;7.634;2023-12-28T10:28:34;18.63;;;11.80;;
9942;SDS011;5010;45.080;7.634;2023-12-28T10:31:02;19.70;;;11.55;;
9942;SDS011;5010;45.080;7.634;2023-12-28T10:33:33;19.40;;;14.10;;
9942;SDS011;5010;45.080;7.634;2023-12-28T10:36:01;18.83;;;12.90;;
9942;SDS011;5010;45.080;7.634;2023-12-28T10:38:32;18.15;;;12.35;;
9942;SDS011;5010;45.080;7.634;2023-12-28T10:41:01;19.05;;;11.95;;
9942;SDS011;5010;45.080;7.634;2023-12-28T10:43:30;18.67;;;12.45;;
9942;SDS011;5010;45.080;7.634;2023-12-28T10:45:59;16.55;;;11.95;;
9942;SDS011;5010;45.080;7.634;2023-12-28T10:48:28;17.92;;;11.27;;
9942;SDS011;5010;45.080;7.634;2023-12-28T10:50:56;17.80;;;11.35;;
9942;SDS011;5010;45.080;7.634;2023-12-28T10:53:30;18.10;;;12.20;;
9942;SDS011;5010;45.080;7.634;2023-12-28T10:56:05;15.25;;;9.43;;
9942;SDS011;5010;45.080;7.634;2023-12-28T10:58:39;15.93;;;10.68;;
9942;SDS011;5010;45.080;7.634;2023-12-28T11:01:10;15.73;;;10.75;;
9942;SDS011;5010;45.080;7.634;2023-12-28T11:03:40;17.98;;;10.70;;
9942;SDS011;5010;45.080;7.634;2023-12-28T11:06:08;19.33;;;9.98;;
9942;SDS011;5010;45.080;7.634;2023-12-28T11:08:36;17.30;;;10.55;;
9942;SDS011;5010;45.080;7.634;2023-12-28T11:11:04;17.10;;;10.80;;
9942;SDS011;5010;45.080;7.634;2023-12-28T11:13:32;20.42;;;11.65;;
9942;SDS011;5010;45.080;7.634;2023-12-28T11:16:00;15.93;;;9.80;;
9942;SDS011;5010;45.080;7.634;2023-12-28T11:18:30;18.83;;;12.27;;
9942;SDS011;5010;45.080;7.634;2023-12-28T11:20:58;21.40;;;13.82;;
9942;SDS011;5010;45.080;7.634;2023-12-28T11:23:25;16.55;;;10.13;;
9942;SDS011;5010;45.080;7.634;2023-12-28T11:25:52;18.50;;;11.20;;
9942;SDS011;5010;45.080;7.634;2023-12-28T11:28:20;16.13;;;10.80;;
9942;SDS011;5010;45.080;7.634;2023-12-28T11:30:51;16.42;;;9.90;;
9942;SDS011;5010;45.080;7.634;2023-12-28T11:33:19;18.10;;;11.20;;
9942;SDS011;5010;45.080;7.634;2023-12-28T11:35:48;16.38;;;10.63;;
9942;SDS011;5010;45.080;7.634;2023-12-28T11:38:15;16.55;;;9.75;;
9942;SDS011;5010;45.080;7.634;2023-12-28T11:40:44;16.75;;;10.00;;
9942;SDS011;5010;45.080;7.634;2023-12-28T11:43:17;15.45;;;9.65;;
9942;SDS011;5010;45.080;7.634;2023-12-28T11:45:48;22.63;;;11.35;;
9942;SDS011;5010;45.080;7.634;2023-12-28T11:48:23;16.70;;;11.60;;
9942;SDS011;5010;45.080;7.634;2023-12-28T11:50:54;20.00;;;10.95;;
9942;SDS011;5010;45.080;7.634;2023-12-28T11:53:23;19.02;;;10.75;;
9942;SDS011;5010;45.080;7.634;2023-12-28T11:55:51;18.75;;;10.15;;
9942;SDS011;5010;45.080;7.634;2023-12-28T11:58:19;18.40;;;10.60;;
9942;SDS011;5010;45.080;7.634;2023-12-28T12:00:47;15.00;;;10.20;;
9942;SDS011;5010;45.080;7.634;2023-12-28T12:03:14;17.42;;;10.95;;
9942;SDS011;5010;45.080;7.634;2023-12-28T12:05:41;17.13;;;10.30;;
9942;SDS011;5010;45.080;7.634;2023-12-28T12:08:10;18.23;;;10.95;;
9942;SDS011;5010;45.080;7.634;2023-12-28T12:10:39;16.73;;;9.25;;
9942;SDS011;5010;45.080;7.634;2023-12-28T12:13:07;16.20;;;10.40;;
9942;SDS011;5010;45.080;7.634;2023-12-28T12:15:34;17.70;;;8.85;;
9942;SDS011;5010;45.080;7.634;2023-12-28T12:18:02;15.18;;;8.90;;
9942;SDS011;5010;45.080;7.634;2023-12-28T12:20:30;15.95;;;10.77;;
9942;SDS011;5010;45.080;7.634;2023-12-28T12:22:57;15.82;;;10.07;;
9942;SDS011;5010;45.080;7.634;2023-12-28T12:25:26;16.92;;;10.35;;
9942;SDS011;5010;45.080;7.634;2023-12-28T12:27:56;16.40;;;10.35;;
9942;SDS011;5010;45.080;7.634;2023-12-28T12:30:23;14.95;;;9.50;;
9942;SDS011;5010;45.080;7.634;2023-12-28T12:32:50;15.93;;;9.65;;
9942;SDS011;5010;45.080;7.634;2023-12-28T12:35:17;15.77;;;9.18;;
9942;SDS011;5010;45.080;7.634;2023-12-28T12:37:46;16.85;;;11.10;;
9942;SDS011;5010;45.080;7.634;2023-12-28T12:40:15;17.95;;;9.75;;
9942;SDS011;5010;45.080;7.634;2023-12-28T12:42:52;19.42;;;9.77;;
9942;SDS011;5010;45.080;7.634;2023-12-28T12:45:20;15.98;;;10.35;;
9942;SDS011;5010;45.080;7.634;2023-12-28T12:47:48;15.80;;;10.27;;
9942;SDS011;5010;45.080;7.634;2023-12-28T12:50:15;16.30;;;9.57;;
9942;SDS011;5010;45.080;7.634;2023-12-28T12:52:43;17.58;;;8.98;;
9942;SDS011;5010;45.080;7.634;2023-12-28T12:55:10;17.58;;;10.50;;
9942;SDS011;5010;45.080;7.634;2023-12-28T12:57:38;15.75;;;10.32;;
9942;SDS011;5010;45.080;7.634;2023-12-28T13:00:08;17.20;;;11.23;;
9942;SDS011;5010;45.080;7.634;2023-12-28T13:02:36;17.60;;;9.85;;
9942;SDS011;5010;45.080;7.634;2023-12-28T13:05:04;16.63;;;10.48;;
9942;SDS011;5010;45.080;7.634;2023-12-28T13:07:32;17.02;;;10.23;;
9942;SDS011;5010;45.080;7.634;2023-12-28T13:09:59;16.02;;;8.82;;
9942;SDS011;5010;45.080;7.634;2023-12-28T13:12:27;16.75;;;9.90;;
9942;SDS011;5010;45.080;7.634;2023-12-28T13:14:54;15.07;;;8.77;;
9942;SDS011;5010;45.080;7.634;2023-12-28T13:17:23;16.77;;;10.30;;
9942;SDS011;5010;45.080;7.634;2023-12-28T13:19:51;15.52;;;8.30;;
9942;SDS011;5010;45.080;7.634;2023-12-28T13:22:18;16.45;;;9.88;;
9942;SDS011;5010;45.080;7.634;2023-12-28T13:24:46;14.60;;;8.73;;
9942;SDS011;5010;45.080;7.634;2023-12-28T13:27:13;16.20;;;11.32;;
9942;SDS011;5010;45.080;7.634;2023-12-28T13:29:40;16.10;;;9.85;;
9942;SDS011;5010;45.080;7.634;2023-12-28T13:32:08;19.05;;;9.77;;
9942;SDS011;5010;45.080;7.634;2023-12-28T13:34:37;15.52;;;9.73;;
9942;SDS011;5010;45.080;7.634;2023-12-28T13:37:04;17.50;;;9.40;;
9942;SDS011;5010;45.080;7.634;2023-12-28T13:39:31;16.48;;;9.32;;
9942;SDS011;5010;45.080;7.634;2023-12-28T13:42:04;17.17;;;8.63;;
9942;SDS011;5010;45.080;7.634;2023-12-28T13:44:32;16.50;;;10.15;;
9942;SDS011;5010;45.080;7.634;2023-12-28T13:47:00;17.55;;;9.60;;
9942;SDS011;5010;45.080;7.634;2023-12-28T13:49:28;15.07;;;10.05;;
9942;SDS011;5010;45.080;7.634;2023-12-28T13:51:56;16.60;;;8.60;;
9942;SDS011;5010;45.080;7.634;2023-12-28T13:54:26;15.70;;;9.43;;
9942;SDS011;5010;45.080;7.634;2023-12-28T13:56:54;19.55;;;11.50;;
9942;SDS011;5010;45.080;7.634;2023-12-28T13:59:23;16.83;;;10.60;;
9942;SDS011;5010;45.080;7.634;2023-12-28T14:01:51;16.73;;;10.45;;
9942;SDS011;5010;45.080;7.634;2023-12-28T14:04:18;17.92;;;10.15;;
9942;SDS011;5010;45.080;7.634;2023-12-28T14:06:45;17.80;;;12.10;;
9942;SDS011;5010;45.080;7.634;2023-12-28T14:09:14;19.08;;;11.57;;
9942;SDS011;5010;45.080;7.634;2023-12-28T14:11:45;16.33;;;10.25;;
9942;SDS011;5010;45.080;7.634;2023-12-28T14:14:13;19.33;;;9.82;;
9942;SDS011;5010;45.080;7.634;2023-12-28T14:16:40;15.02;;;9.40;;
9942;SDS011;5010;45.080;7.634;2023-12-28T14:19:07;15.85;;;9.25;;
9942;SDS011;5010;45.080;7.634;2023-12-28T14:21:35;16.60;;;9.63;;
9942;SDS011;5010;45.080;7.634;2023-12-28T14:24:06;15.43;;;9.95;;
9942;SDS011;5010;45.080;7.634;2023-12-28T14:26:35;14.65;;;9.63;;
9942;SDS011;5010;45.080;7.634;2023-12-28T14:29:06;17.20;;;9.80;;
9942;SDS011;5010;45.080;7.634;2023-12-28T14:31:34;15.45;;;9.05;;
9942;SDS011;5010;45.080;7.634;2023-12-28T14:34:02;16.88;;;10.18;;
9942;SDS011;5010;45.080;7.634;2023-12-28T14:36:31;17.08;;;10.27;;
9942;SDS011;5010;45.080;7.634;2023-12-28T14:38:59;15.40;;;9.13;;
9942;SDS011;5010;45.080;7.634;2023-12-28T14:41:26;15.43;;;9.70;;
9942;SDS011;5010;45.080;7.634;2023-12-28T14:43:55;16.10;;;9.98;;
9942;SDS011;5010;45.080;7.634;2023-12-28T14:46:23;17.75;;;10.32;;
9942;SDS011;5010;45.080;7.634;2023-12-28T14:48:50;16.25;;;9.80;;
9942;SDS011;5010;45.080;7.634;2023-12-28T14:51:17;17.88;;;9.10;;
9942;SDS011;5010;45.080;7.634;2023-12-28T14:53:45;14.95;;;9.00;;